sensor_id;sensor_type;location;lat;lon;timestamp;P1;durP1;ratioP1;P2;durP2;ratioP2
36963;SDS011;22878;48.616;35.326;2023-06-01T00:01:57;12.80;;;2.80;;
36963;SDS011;22878;48.616;35.326;2023-06-01T00:04:23;8.10;;;3.40;;
36963;SDS011;22878;48.616;35.326;2023-06-01T00:06:48;10.50;;;3.00;;
36963;SDS011;22878;48.616;35.326;2023-06-01T00:09:14;12.90;;;3.30;;
36963;SDS011;22878;48.616;35.326;2023-06-01T00:11:40;6.90;;;2.90;;
36963;SDS011;22878;48.616;35.326;2023-06-01T00:14:06;9.50;;;3.30;;
36963;SDS011;22878;48.616;35.326;2023-06-01T00:16:31;13.10;;;3.10;;
36963;SDS011;22878;48.616;35.326;2023-06-01T00:18:58;11.60;;;3.20;;
36963;SDS011;22878;48.616;35.326;2023-06-01T00:21:26;7.00;;;2.70;;
36963;SDS011;22878;48.616;35.326;2023-06-01T00:23:52;8.10;;;3.20;;
36963;SDS011;22878;48.616;35.326;2023-06-01T00:26:17;6.50;;;3.20;;
36963;SDS011;22878;48.616;35.326;2023-06-01T00:28:43;16.70;;;3.30;;
36963;SDS011;22878;48.616;35.326;2023-06-01T00:31:08;9.50;;;2.80;;
36963;SDS011;22878;48.616;35.326;2023-06-01T00:33:34;10.10;;;3.20;;
36963;SDS011;22878;48.616;35.326;2023-06-01T00:35:59;9.30;;;3.00;;
36963;SDS011;22878;48.616;35.326;2023-06-01T00:38:25;9.40;;;3.40;;
36963;SDS011;22878;48.616;35.326;2023-06-01T00:40:50;9.10;;;3.30;;
36963;SDS011;22878;48.616;35.326;2023-06-01T00:43:16;9.10;;;3.10;;
36963;SDS011;22878;48.616;35.326;2023-06-01T00:45:42;9.40;;;3.00;;
36963;SDS011;22878;48.616;35.326;2023-06-01T00:48:08;7.40;;;2.80;;
36963;SDS011;22878;48.616;35.326;2023-06-01T00:50:34;6.50;;;2.70;;
36963;SDS011;22878;48.616;35.326;2023-06-01T00:53:00;10.70;;;3.20;;
36963;SDS011;22878;48.616;35.326;2023-06-01T00:55:31;11.00;;;3.10;;
36963;SDS011;22878;48.616;35.326;2023-06-01T00:57:56;8.50;;;3.20;;
36963;SDS011;22878;48.616;35.326;2023-06-01T01:00:22;6.90;;;2.70;;
36963;SDS011;22878;48.616;35.326;2023-06-01T01:02:51;9.20;;;3.00;;
36963;SDS011;22878;48.616;35.326;2023-06-01T01:05:17;11.00;;;3.20;;
36963;SDS011;22878;48.616;35.326;2023-06-01T01:10:32;9.50;;;2.90;;
36963;SDS011;22878;48.616;35.326;2023-06-01T01:13:31;6.50;;;2.90;;
36963;SDS011;22878;48.616;35.326;2023-06-01T01:16:03;11.40;;;3.20;;
36963;SDS011;22878;48.616;35.326;2023-06-01T01:21:05;10.00;;;3.00;;
36963;SDS011;22878;48.616;35.326;2023-06-01T01:26:51;8.40;;;3.10;;
36963;SDS011;22878;48.616;35.326;2023-06-01T01:29:18;9.70;;;2.90;;
36963;SDS011;22878;48.616;35.326;2023-06-01T01:31:49;10.20;;;3.00;;
36963;SDS011;22878;48.616;35.326;2023-06-01T01:34:15;11.20;;;3.40;;
36963;SDS011;22878;48.616;35.326;2023-06-01T01:36:43;8.70;;;3.30;;
36963;SDS011;22878;48.616;35.326;2023-06-01T01:39:09;8.60;;;3.00;;
36963;SDS011;22878;48.616;35.326;2023-06-01T01:41:35;8.60;;;3.00;;
36963;SDS011;22878;48.616;35.326;2023-06-01T01:44:00;8.20;;;3.20;;
36963;SDS011;22878;48.616;35.326;2023-06-01T01:46:31;7.80;;;2.80;;
36963;SDS011;22878;48.616;35.326;2023-06-01T01:49:30;7.60;;;2.50;;
36963;SDS011;22878;48.616;35.326;2023-06-01T01:52:21;11.30;;;2.90;;
36963;SDS011;22878;48.616;35.326;2023-06-01T01:54:51;7.10;;;2.90;;
36963;SDS011;22878;48.616;35.326;2023-06-01T01:57:17;11.40;;;2.80;;
36963;SDS011;22878;48.616;35.326;2023-06-01T01:59:45;7.10;;;2.70;;
36963;SDS011;22878;48.616;35.326;2023-06-01T02:02:11;11.00;;;3.00;;
36963;SDS011;22878;48.616;35.326;2023-06-01T02:04:40;10.60;;;2.90;;
36963;SDS011;22878;48.616;35.326;2023-06-01T02:07:07;17.80;;;3.00;;
36963;SDS011;22878;48.616;35.326;2023-06-01T02:09:33;7.80;;;3.10;;
36963;SDS011;22878;48.616;35.326;2023-06-01T02:11:58;8.80;;;2.70;;
36963;SDS011;22878;48.616;35.326;2023-06-01T02:14:24;11.20;;;3.50;;
36963;SDS011;22878;48.616;35.326;2023-06-01T02:16:50;6.80;;;3.10;;
36963;SDS011;22878;48.616;35.326;2023-06-01T02:19:15;11.30;;;2.60;;
36963;SDS011;22878;48.616;35.326;2023-06-01T02:21:44;9.60;;;2.70;;
36963;SDS011;22878;48.616;35.326;2023-06-01T02:24:10;11.00;;;3.10;;
36963;SDS011;22878;48.616;35.326;2023-06-01T02:26:36;9.70;;;2.80;;
36963;SDS011;22878;48.616;35.326;2023-06-01T02:29:01;8.40;;;2.30;;
36963;SDS011;22878;48.616;35.326;2023-06-01T02:31:30;8.90;;;2.70;;
36963;SDS011;22878;48.616;35.326;2023-06-01T02:33:59;8.20;;;2.90;;
36963;SDS011;22878;48.616;35.326;2023-06-01T02:36:25;8.90;;;3.00;;
36963;SDS011;22878;48.616;35.326;2023-06-01T02:38:51;9.40;;;2.80;;
36963;SDS011;22878;48.616;35.326;2023-06-01T02:41:17;8.60;;;3.20;;
36963;SDS011;22878;48.616;35.326;2023-06-01T02:43:42;7.80;;;3.10;;
36963;SDS011;22878;48.616;35.326;2023-06-01T02:46:08;6.50;;;2.80;;
36963;SDS011;22878;48.616;35.326;2023-06-01T02:48:33;8.90;;;2.80;;
36963;SDS011;22878;48.616;35.326;2023-06-01T02:51:00;8.10;;;3.00;;
36963;SDS011;22878;48.616;35.326;2023-06-01T02:53:25;5.40;;;2.50;;
36963;SDS011;22878;48.616;35.326;2023-06-01T02:55:53;7.20;;;2.40;;
36963;SDS011;22878;48.616;35.326;2023-06-01T02:58:19;8.20;;;3.00;;
36963;SDS011;22878;48.616;35.326;2023-06-01T03:00:45;11.00;;;2.80;;
36963;SDS011;22878;48.616;35.326;2023-06-01T03:03:11;8.30;;;2.90;;
36963;SDS011;22878;48.616;35.326;2023-06-01T03:05:37;7.90;;;3.00;;
36963;SDS011;22878;48.616;35.326;2023-06-01T03:08:04;6.50;;;2.80;;
36963;SDS011;22878;48.616;35.326;2023-06-01T03:10:31;10.00;;;2.60;;
36963;SDS011;22878;48.616;35.326;2023-06-01T03:12:57;6.80;;;2.40;;
36963;SDS011;22878;48.616;35.326;2023-06-01T03:15:23;6.00;;;2.30;;
36963;SDS011;22878;48.616;35.326;2023-06-01T03:17:48;10.30;;;2.90;;
36963;SDS011;22878;48.616;35.326;2023-06-01T03:20:14;8.80;;;2.40;;
36963;SDS011;22878;48.616;35.326;2023-06-01T03:22:45;6.10;;;2.50;;
36963;SDS011;22878;48.616;35.326;2023-06-01T03:25:11;12.50;;;3.90;;
36963;SDS011;22878;48.616;35.326;2023-06-01T03:27:38;8.50;;;2.40;;
36963;SDS011;22878;48.616;35.326;2023-06-01T03:30:05;9.40;;;2.30;;
36963;SDS011;22878;48.616;35.326;2023-06-01T03:32:38;8.00;;;2.20;;
36963;SDS011;22878;48.616;35.326;2023-06-01T03:35:07;13.30;;;2.70;;
36963;SDS011;22878;48.616;35.326;2023-06-01T03:37:35;5.60;;;2.20;;
36963;SDS011;22878;48.616;35.326;2023-06-01T03:40:02;7.00;;;2.40;;
36963;SDS011;22878;48.616;35.326;2023-06-01T03:42:45;7.10;;;2.10;;
36963;SDS011;22878;48.616;35.326;2023-06-01T03:45:12;11.50;;;2.80;;
36963;SDS011;22878;48.616;35.326;2023-06-01T03:47:40;8.20;;;2.30;;
36963;SDS011;22878;48.616;35.326;2023-06-01T03:50:07;9.70;;;2.40;;
36963;SDS011;22878;48.616;35.326;2023-06-01T03:52:34;5.80;;;2.40;;
36963;SDS011;22878;48.616;35.326;2023-06-01T03:55:00;6.50;;;2.50;;
36963;SDS011;22878;48.616;35.326;2023-06-01T03:57:28;7.60;;;2.60;;
36963;SDS011;22878;48.616;35.326;2023-06-01T03:59:53;8.10;;;2.10;;
36963;SDS011;22878;48.616;35.326;2023-06-01T04:02:19;7.30;;;1.90;;
36963;SDS011;22878;48.616;35.326;2023-06-01T04:04:45;4.90;;;1.70;;
36963;SDS011;22878;48.616;35.326;2023-06-01T04:07:12;6.10;;;2.70;;
36963;SDS011;22878;48.616;35.326;2023-06-01T04:09:40;10.20;;;2.20;;
36963;SDS011;22878;48.616;35.326;2023-06-01T04:12:06;5.30;;;2.20;;
36963;SDS011;22878;48.616;35.326;2023-06-01T04:14:32;6.60;;;2.00;;
36963;SDS011;22878;48.616;35.326;2023-06-01T04:16:57;5.10;;;2.00;;
36963;SDS011;22878;48.616;35.326;2023-06-01T04:19:23;4.20;;;2.00;;
36963;SDS011;22878;48.616;35.326;2023-06-01T04:21:48;3.80;;;1.80;;
36963;SDS011;22878;48.616;35.326;2023-06-01T04:24:14;8.50;;;2.00;;
36963;SDS011;22878;48.616;35.326;2023-06-01T04:26:41;5.20;;;2.00;;
36963;SDS011;22878;48.616;35.326;2023-06-01T04:29:06;7.30;;;2.00;;
36963;SDS011;22878;48.616;35.326;2023-06-01T04:31:34;3.40;;;1.90;;
36963;SDS011;22878;48.616;35.326;2023-06-01T04:33:59;3.90;;;1.90;;
36963;SDS011;22878;48.616;35.326;2023-06-01T04:36:29;9.20;;;2.20;;
36963;SDS011;22878;48.616;35.326;2023-06-01T04:38:54;4.70;;;1.60;;
36963;SDS011;22878;48.616;35.326;2023-06-01T04:41:20;7.80;;;1.80;;
36963;SDS011;22878;48.616;35.326;2023-06-01T04:43:47;3.70;;;1.60;;
36963;SDS011;22878;48.616;35.326;2023-06-01T04:46:22;8.30;;;1.70;;
36963;SDS011;22878;48.616;35.326;2023-06-01T04:48:50;9.20;;;1.70;;
36963;SDS011;22878;48.616;35.326;2023-06-01T04:51:20;7.60;;;1.90;;
36963;SDS011;22878;48.616;35.326;2023-06-01T04:53:48;7.50;;;2.10;;
36963;SDS011;22878;48.616;35.326;2023-06-01T04:56:17;6.20;;;1.80;;
36963;SDS011;22878;48.616;35.326;2023-06-01T04:58:43;5.40;;;1.80;;
36963;SDS011;22878;48.616;35.326;2023-06-01T05:01:09;4.50;;;1.60;;
36963;SDS011;22878;48.616;35.326;2023-06-01T05:03:38;6.50;;;2.00;;
36963;SDS011;22878;48.616;35.326;2023-06-01T05:06:04;11.30;;;1.80;;
36963;SDS011;22878;48.616;35.326;2023-06-01T05:08:29;8.80;;;1.80;;
36963;SDS011;22878;48.616;35.326;2023-06-01T05:10:56;3.60;;;1.70;;
36963;SDS011;22878;48.616;35.326;2023-06-01T05:13:21;2.90;;;1.80;;
36963;SDS011;22878;48.616;35.326;2023-06-01T05:15:47;6.50;;;2.00;;
36963;SDS011;22878;48.616;35.326;2023-06-01T05:18:12;12.00;;;2.30;;
36963;SDS011;22878;48.616;35.326;2023-06-01T05:20:38;3.50;;;1.70;;
36963;SDS011;22878;48.616;35.326;2023-06-01T05:23:04;3.50;;;2.00;;
36963;SDS011;22878;48.616;35.326;2023-06-01T05:25:29;4.00;;;1.60;;
36963;SDS011;22878;48.616;35.326;2023-06-01T05:27:55;13.90;;;2.20;;
36963;SDS011;22878;48.616;35.326;2023-06-01T05:30:20;2.80;;;1.40;;
36963;SDS011;22878;48.616;35.326;2023-06-01T05:32:46;3.00;;;1.70;;
36963;SDS011;22878;48.616;35.326;2023-06-01T05:35:11;5.50;;;1.60;;
36963;SDS011;22878;48.616;35.326;2023-06-01T05:37:37;7.20;;;2.00;;
36963;SDS011;22878;48.616;35.326;2023-06-01T05:40:02;2.50;;;1.60;;
36963;SDS011;22878;48.616;35.326;2023-06-01T05:42:32;7.30;;;2.10;;
36963;SDS011;22878;48.616;35.326;2023-06-01T05:44:57;10.10;;;1.80;;
36963;SDS011;22878;48.616;35.326;2023-06-01T05:47:23;6.50;;;1.70;;
36963;SDS011;22878;48.616;35.326;2023-06-01T05:49:48;2.80;;;1.80;;
36963;SDS011;22878;48.616;35.326;2023-06-01T05:52:14;8.50;;;1.80;;
36963;SDS011;22878;48.616;35.326;2023-06-01T05:54:40;7.70;;;1.60;;
36963;SDS011;22878;48.616;35.326;2023-06-01T05:57:05;4.00;;;1.60;;
36963;SDS011;22878;48.616;35.326;2023-06-01T05:59:31;6.40;;;1.60;;
36963;SDS011;22878;48.616;35.326;2023-06-01T06:01:57;15.60;;;1.80;;
36963;SDS011;22878;48.616;35.326;2023-06-01T06:04:23;14.80;;;2.10;;
36963;SDS011;22878;48.616;35.326;2023-06-01T06:06:48;6.60;;;1.90;;
36963;SDS011;22878;48.616;35.326;2023-06-01T06:09:14;5.70;;;1.60;;
36963;SDS011;22878;48.616;35.326;2023-06-01T06:11:44;6.30;;;1.70;;
36963;SDS011;22878;48.616;35.326;2023-06-01T06:14:18;7.10;;;1.70;;
36963;SDS011;22878;48.616;35.326;2023-06-01T06:16:44;4.10;;;1.50;;
36963;SDS011;22878;48.616;35.326;2023-06-01T06:19:10;4.20;;;1.30;;
36963;SDS011;22878;48.616;35.326;2023-06-01T06:21:36;6.20;;;1.50;;
36963;SDS011;22878;48.616;35.326;2023-06-01T06:24:02;3.10;;;1.60;;
36963;SDS011;22878;48.616;35.326;2023-06-01T06:26:28;4.70;;;2.00;;
36963;SDS011;22878;48.616;35.326;2023-06-01T06:28:54;5.90;;;1.60;;
36963;SDS011;22878;48.616;35.326;2023-06-01T06:31:20;2.70;;;1.60;;
36963;SDS011;22878;48.616;35.326;2023-06-01T06:33:46;8.00;;;1.70;;
36963;SDS011;22878;48.616;35.326;2023-06-01T06:36:12;8.00;;;1.50;;
36963;SDS011;22878;48.616;35.326;2023-06-01T06:38:37;1.70;;;1.10;;
36963;SDS011;22878;48.616;35.326;2023-06-01T06:41:03;6.10;;;1.60;;
36963;SDS011;22878;48.616;35.326;2023-06-01T06:43:29;7.40;;;2.00;;
36963;SDS011;22878;48.616;35.326;2023-06-01T06:45:54;6.60;;;2.00;;
36963;SDS011;22878;48.616;35.326;2023-06-01T06:48:20;5.10;;;1.90;;
36963;SDS011;22878;48.616;35.326;2023-06-01T06:50:45;6.30;;;2.30;;
36963;SDS011;22878;48.616;35.326;2023-06-01T06:53:11;3.70;;;1.80;;
36963;SDS011;22878;48.616;35.326;2023-06-01T06:55:37;15.80;;;2.10;;
36963;SDS011;22878;48.616;35.326;2023-06-01T06:58:02;3.00;;;1.50;;
36963;SDS011;22878;48.616;35.326;2023-06-01T07:00:28;7.60;;;1.90;;
36963;SDS011;22878;48.616;35.326;2023-06-01T07:02:54;7.90;;;1.80;;
36963;SDS011;22878;48.616;35.326;2023-06-01T07:05:20;8.00;;;1.60;;
36963;SDS011;22878;48.616;35.326;2023-06-01T07:07:46;8.50;;;1.60;;
36963;SDS011;22878;48.616;35.326;2023-06-01T07:10:11;6.30;;;1.50;;
36963;SDS011;22878;48.616;35.326;2023-06-01T07:12:37;6.00;;;2.00;;
36963;SDS011;22878;48.616;35.326;2023-06-01T07:15:03;5.20;;;1.70;;
36963;SDS011;22878;48.616;35.326;2023-06-01T07:17:30;4.20;;;1.70;;
36963;SDS011;22878;48.616;35.326;2023-06-01T07:19:56;6.90;;;1.70;;
36963;SDS011;22878;48.616;35.326;2023-06-01T07:22:21;7.00;;;1.70;;
36963;SDS011;22878;48.616;35.326;2023-06-01T07:24:47;3.10;;;1.90;;
36963;SDS011;22878;48.616;35.326;2023-06-01T07:27:13;2.20;;;1.60;;
36963;SDS011;22878;48.616;35.326;2023-06-01T07:29:39;5.80;;;1.60;;
36963;SDS011;22878;48.616;35.326;2023-06-01T07:32:06;6.20;;;1.70;;
36963;SDS011;22878;48.616;35.326;2023-06-01T07:34:32;4.30;;;1.70;;
36963;SDS011;22878;48.616;35.326;2023-06-01T07:37:01;5.50;;;2.40;;
36963;SDS011;22878;48.616;35.326;2023-06-01T07:39:26;2.10;;;1.40;;
36963;SDS011;22878;48.616;35.326;2023-06-01T07:41:53;7.20;;;1.60;;
36963;SDS011;22878;48.616;35.326;2023-06-01T07:44:19;7.60;;;1.70;;
36963;SDS011;22878;48.616;35.326;2023-06-01T07:46:45;6.10;;;1.70;;
36963;SDS011;22878;48.616;35.326;2023-06-01T07:49:14;5.70;;;1.60;;
36963;SDS011;22878;48.616;35.326;2023-06-01T07:51:43;5.90;;;1.90;;
36963;SDS011;22878;48.616;35.326;2023-06-01T07:54:09;6.20;;;1.90;;
36963;SDS011;22878;48.616;35.326;2023-06-01T07:56:35;2.50;;;1.70;;
36963;SDS011;22878;48.616;35.326;2023-06-01T07:59:01;3.60;;;2.20;;
36963;SDS011;22878;48.616;35.326;2023-06-01T08:01:27;7.30;;;2.80;;
36963;SDS011;22878;48.616;35.326;2023-06-01T08:03:53;8.50;;;3.30;;
36963;SDS011;22878;48.616;35.326;2023-06-01T08:06:21;5.30;;;2.80;;
36963;SDS011;22878;48.616;35.326;2023-06-01T08:08:47;3.90;;;1.50;;
36963;SDS011;22878;48.616;35.326;2023-06-01T08:11:14;14.10;;;2.20;;
36963;SDS011;22878;48.616;35.326;2023-06-01T08:13:41;5.00;;;1.80;;
36963;SDS011;22878;48.616;35.326;2023-06-01T08:16:07;13.30;;;2.00;;
36963;SDS011;22878;48.616;35.326;2023-06-01T08:18:32;9.80;;;2.80;;
36963;SDS011;22878;48.616;35.326;2023-06-01T08:20:58;6.50;;;2.40;;
36963;SDS011;22878;48.616;35.326;2023-06-01T08:23:25;2.90;;;1.80;;
36963;SDS011;22878;48.616;35.326;2023-06-01T08:25:51;3.20;;;1.90;;
36963;SDS011;22878;48.616;35.326;2023-06-01T08:28:17;3.90;;;1.70;;
36963;SDS011;22878;48.616;35.326;2023-06-01T08:30:42;4.30;;;1.50;;
36963;SDS011;22878;48.616;35.326;2023-06-01T08:33:08;9.10;;;1.80;;
36963;SDS011;22878;48.616;35.326;2023-06-01T08:35:33;8.00;;;2.00;;
36963;SDS011;22878;48.616;35.326;2023-06-01T08:38:02;16.00;;;1.80;;
36963;SDS011;22878;48.616;35.326;2023-06-01T08:40:28;11.10;;;2.20;;
36963;SDS011;22878;48.616;35.326;2023-06-01T08:43:13;6.60;;;1.70;;
36963;SDS011;22878;48.616;35.326;2023-06-01T08:45:43;2.00;;;1.50;;
36963;SDS011;22878;48.616;35.326;2023-06-01T08:48:10;4.70;;;1.60;;
36963;SDS011;22878;48.616;35.326;2023-06-01T08:50:47;4.00;;;1.70;;
36963;SDS011;22878;48.616;35.326;2023-06-01T08:53:17;8.20;;;1.80;;
36963;SDS011;22878;48.616;35.326;2023-06-01T08:55:53;3.70;;;1.80;;
36963;SDS011;22878;48.616;35.326;2023-06-01T08:58:20;6.10;;;1.70;;
36963;SDS011;22878;48.616;35.326;2023-06-01T09:00:50;2.90;;;1.70;;
36963;SDS011;22878;48.616;35.326;2023-06-01T09:03:16;7.60;;;2.00;;
36963;SDS011;22878;48.616;35.326;2023-06-01T09:05:42;2.90;;;1.50;;
36963;SDS011;22878;48.616;35.326;2023-06-01T09:08:08;3.60;;;1.80;;
36963;SDS011;22878;48.616;35.326;2023-06-01T09:10:35;5.70;;;1.70;;
36963;SDS011;22878;48.616;35.326;2023-06-01T09:13:01;9.20;;;1.70;;
36963;SDS011;22878;48.616;35.326;2023-06-01T09:15:28;4.40;;;1.70;;
36963;SDS011;22878;48.616;35.326;2023-06-01T09:18:04;6.20;;;1.70;;
36963;SDS011;22878;48.616;35.326;2023-06-01T09:20:31;9.20;;;1.80;;
36963;SDS011;22878;48.616;35.326;2023-06-01T09:22:57;3.10;;;1.50;;
36963;SDS011;22878;48.616;35.326;2023-06-01T09:25:24;4.60;;;1.40;;
36963;SDS011;22878;48.616;35.326;2023-06-01T09:27:54;5.00;;;1.40;;
36963;SDS011;22878;48.616;35.326;2023-06-01T09:30:22;5.70;;;1.60;;
36963;SDS011;22878;48.616;35.326;2023-06-01T09:32:50;5.90;;;1.40;;
36963;SDS011;22878;48.616;35.326;2023-06-01T09:35:37;3.60;;;1.40;;
36963;SDS011;22878;48.616;35.326;2023-06-01T09:38:05;3.10;;;1.60;;
36963;SDS011;22878;48.616;35.326;2023-06-01T09:40:31;3.70;;;1.30;;
36963;SDS011;22878;48.616;35.326;2023-06-01T09:42:59;3.60;;;1.60;;
36963;SDS011;22878;48.616;35.326;2023-06-01T09:45:24;3.60;;;1.70;;
36963;SDS011;22878;48.616;35.326;2023-06-01T09:47:51;9.00;;;1.60;;
36963;SDS011;22878;48.616;35.326;2023-06-01T09:53:03;5.30;;;1.30;;
36963;SDS011;22878;48.616;35.326;2023-06-01T09:55:30;5.50;;;1.70;;
36963;SDS011;22878;48.616;35.326;2023-06-01T10:00:47;6.10;;;1.30;;
36963;SDS011;22878;48.616;35.326;2023-06-01T10:03:14;4.70;;;1.50;;
36963;SDS011;22878;48.616;35.326;2023-06-01T10:05:41;5.30;;;1.60;;
36963;SDS011;22878;48.616;35.326;2023-06-01T10:08:14;3.10;;;1.50;;
36963;SDS011;22878;48.616;35.326;2023-06-01T10:10:43;7.20;;;1.60;;
36963;SDS011;22878;48.616;35.326;2023-06-01T10:13:11;4.10;;;1.40;;
36963;SDS011;22878;48.616;35.326;2023-06-01T10:15:38;3.80;;;2.00;;
36963;SDS011;22878;48.616;35.326;2023-06-01T10:18:03;6.60;;;1.60;;
36963;SDS011;22878;48.616;35.326;2023-06-01T10:20:33;2.60;;;1.50;;
36963;SDS011;22878;48.616;35.326;2023-06-01T10:23:00;3.80;;;1.70;;
36963;SDS011;22878;48.616;35.326;2023-06-01T10:25:28;3.80;;;1.60;;
36963;SDS011;22878;48.616;35.326;2023-06-01T10:28:06;5.90;;;1.40;;
36963;SDS011;22878;48.616;35.326;2023-06-01T10:30:34;3.30;;;1.60;;
36963;SDS011;22878;48.616;35.326;2023-06-01T10:33:00;4.80;;;1.70;;
36963;SDS011;22878;48.616;35.326;2023-06-01T10:40:38;2.10;;;1.40;;
36963;SDS011;22878;48.616;35.326;2023-06-01T10:48:09;5.80;;;1.60;;
36963;SDS011;22878;48.616;35.326;2023-06-01T10:50:36;9.50;;;2.00;;
36963;SDS011;22878;48.616;35.326;2023-06-01T11:01:31;5.00;;;1.60;;
36963;SDS011;22878;48.616;35.326;2023-06-01T11:03:59;7.50;;;1.40;;
36963;SDS011;22878;48.616;35.326;2023-06-01T11:08:54;2.20;;;1.60;;
36963;SDS011;22878;48.616;35.326;2023-06-01T11:11:22;6.10;;;1.40;;
36963;SDS011;22878;48.616;35.326;2023-06-01T11:14:11;3.90;;;1.60;;
36963;SDS011;22878;48.616;35.326;2023-06-01T11:16:36;3.60;;;1.60;;
36963;SDS011;22878;48.616;35.326;2023-06-01T11:19:02;4.50;;;1.50;;
36963;SDS011;22878;48.616;35.326;2023-06-01T11:21:41;3.90;;;1.30;;
36963;SDS011;22878;48.616;35.326;2023-06-01T11:24:11;8.80;;;2.10;;
36963;SDS011;22878;48.616;35.326;2023-06-01T11:26:41;3.50;;;1.40;;
36963;SDS011;22878;48.616;35.326;2023-06-01T11:29:12;4.40;;;1.40;;
36963;SDS011;22878;48.616;35.326;2023-06-01T11:31:41;13.50;;;1.40;;
36963;SDS011;22878;48.616;35.326;2023-06-01T11:34:08;7.10;;;1.90;;
36963;SDS011;22878;48.616;35.326;2023-06-01T11:36:38;5.70;;;1.70;;
36963;SDS011;22878;48.616;35.326;2023-06-01T11:39:05;7.50;;;1.80;;
36963;SDS011;22878;48.616;35.326;2023-06-01T11:41:34;4.10;;;1.60;;
36963;SDS011;22878;48.616;35.326;2023-06-01T11:44:00;5.30;;;1.90;;
36963;SDS011;22878;48.616;35.326;2023-06-01T11:46:26;5.80;;;1.70;;
36963;SDS011;22878;48.616;35.326;2023-06-01T11:48:59;10.30;;;2.00;;
36963;SDS011;22878;48.616;35.326;2023-06-01T11:51:33;5.40;;;1.50;;
36963;SDS011;22878;48.616;35.326;2023-06-01T11:56:29;9.60;;;1.70;;
36963;SDS011;22878;48.616;35.326;2023-06-01T11:58:59;7.00;;;1.70;;
36963;SDS011;22878;48.616;35.326;2023-06-01T12:01:26;6.00;;;1.40;;
36963;SDS011;22878;48.616;35.326;2023-06-01T12:03:52;4.50;;;1.60;;
36963;SDS011;22878;48.616;35.326;2023-06-01T12:06:22;3.90;;;1.80;;
36963;SDS011;22878;48.616;35.326;2023-06-01T12:08:50;4.50;;;1.80;;
36963;SDS011;22878;48.616;35.326;2023-06-01T12:11:24;5.10;;;1.80;;
36963;SDS011;22878;48.616;35.326;2023-06-01T12:13:54;4.00;;;1.50;;
36963;SDS011;22878;48.616;35.326;2023-06-01T12:16:23;7.30;;;2.20;;
36963;SDS011;22878;48.616;35.326;2023-06-01T12:18:50;5.00;;;2.20;;
36963;SDS011;22878;48.616;35.326;2023-06-01T12:21:16;2.70;;;1.60;;
36963;SDS011;22878;48.616;35.326;2023-06-01T12:23:42;6.30;;;2.00;;
36963;SDS011;22878;48.616;35.326;2023-06-01T12:26:16;5.80;;;2.10;;
36963;SDS011;22878;48.616;35.326;2023-06-01T12:28:52;5.10;;;1.70;;
36963;SDS011;22878;48.616;35.326;2023-06-01T12:31:20;6.60;;;1.70;;
36963;SDS011;22878;48.616;35.326;2023-06-01T12:33:46;5.20;;;2.00;;
36963;SDS011;22878;48.616;35.326;2023-06-01T12:36:34;4.10;;;1.80;;
36963;SDS011;22878;48.616;35.326;2023-06-01T12:39:01;4.50;;;1.70;;
36963;SDS011;22878;48.616;35.326;2023-06-01T12:41:30;3.40;;;1.80;;
36963;SDS011;22878;48.616;35.326;2023-06-01T12:43:57;6.80;;;1.70;;
36963;SDS011;22878;48.616;35.326;2023-06-01T12:46:26;3.80;;;1.80;;
36963;SDS011;22878;48.616;35.326;2023-06-01T12:51:36;6.80;;;1.80;;
36963;SDS011;22878;48.616;35.326;2023-06-01T12:54:02;5.70;;;1.90;;
36963;SDS011;22878;48.616;35.326;2023-06-01T12:56:28;7.10;;;2.30;;
36963;SDS011;22878;48.616;35.326;2023-06-01T12:58:54;9.60;;;2.30;;
36963;SDS011;22878;48.616;35.326;2023-06-01T13:01:19;3.40;;;2.00;;
36963;SDS011;22878;48.616;35.326;2023-06-01T13:03:45;6.20;;;1.90;;
36963;SDS011;22878;48.616;35.326;2023-06-01T13:06:11;4.50;;;2.00;;
36963;SDS011;22878;48.616;35.326;2023-06-01T13:08:37;7.10;;;2.40;;
36963;SDS011;22878;48.616;35.326;2023-06-01T13:11:03;4.80;;;2.10;;
36963;SDS011;22878;48.616;35.326;2023-06-01T13:13:29;5.10;;;1.80;;
36963;SDS011;22878;48.616;35.326;2023-06-01T13:15:55;2.40;;;1.40;;
36963;SDS011;22878;48.616;35.326;2023-06-01T13:18:20;4.50;;;1.80;;
36963;SDS011;22878;48.616;35.326;2023-06-01T13:20:46;2.50;;;1.70;;
36963;SDS011;22878;48.616;35.326;2023-06-01T13:23:12;4.50;;;1.80;;
36963;SDS011;22878;48.616;35.326;2023-06-01T13:25:38;6.00;;;1.70;;
36963;SDS011;22878;48.616;35.326;2023-06-01T13:28:04;5.50;;;1.90;;
36963;SDS011;22878;48.616;35.326;2023-06-01T13:30:32;3.70;;;1.80;;
36963;SDS011;22878;48.616;35.326;2023-06-01T13:32:58;6.20;;;1.90;;
36963;SDS011;22878;48.616;35.326;2023-06-01T13:35:24;5.60;;;1.70;;
36963;SDS011;22878;48.616;35.326;2023-06-01T13:37:50;5.60;;;2.10;;
36963;SDS011;22878;48.616;35.326;2023-06-01T13:40:15;12.60;;;2.60;;
36963;SDS011;22878;48.616;35.326;2023-06-01T13:42:48;8.30;;;1.60;;
36963;SDS011;22878;48.616;35.326;2023-06-01T13:45:14;5.60;;;1.40;;
36963;SDS011;22878;48.616;35.326;2023-06-01T13:47:39;5.20;;;1.80;;
36963;SDS011;22878;48.616;35.326;2023-06-01T13:50:06;5.00;;;1.60;;
36963;SDS011;22878;48.616;35.326;2023-06-01T13:52:33;8.80;;;1.80;;
36963;SDS011;22878;48.616;35.326;2023-06-01T13:54:58;5.90;;;1.60;;
36963;SDS011;22878;48.616;35.326;2023-06-01T13:57:24;8.20;;;2.20;;
36963;SDS011;22878;48.616;35.326;2023-06-01T13:59:50;11.50;;;2.40;;
36963;SDS011;22878;48.616;35.326;2023-06-01T14:02:15;7.20;;;1.90;;
36963;SDS011;22878;48.616;35.326;2023-06-01T14:04:41;3.20;;;1.80;;
36963;SDS011;22878;48.616;35.326;2023-06-01T14:07:06;7.20;;;1.90;;
36963;SDS011;22878;48.616;35.326;2023-06-01T14:09:31;8.70;;;2.30;;
36963;SDS011;22878;48.616;35.326;2023-06-01T14:11:57;6.20;;;1.80;;
36963;SDS011;22878;48.616;35.326;2023-06-01T14:14:23;6.20;;;1.80;;
36963;SDS011;22878;48.616;35.326;2023-06-01T14:16:48;4.00;;;1.80;;
36963;SDS011;22878;48.616;35.326;2023-06-01T14:19:13;5.40;;;1.70;;
36963;SDS011;22878;48.616;35.326;2023-06-01T14:21:39;5.90;;;1.50;;
36963;SDS011;22878;48.616;35.326;2023-06-01T14:24:05;4.70;;;1.60;;
36963;SDS011;22878;48.616;35.326;2023-06-01T14:26:31;5.70;;;1.60;;
36963;SDS011;22878;48.616;35.326;2023-06-01T14:28:56;4.30;;;1.70;;
36963;SDS011;22878;48.616;35.326;2023-06-01T14:31:22;9.10;;;1.70;;
36963;SDS011;22878;48.616;35.326;2023-06-01T14:33:47;5.80;;;1.90;;
36963;SDS011;22878;48.616;35.326;2023-06-01T14:36:14;5.90;;;1.90;;
36963;SDS011;22878;48.616;35.326;2023-06-01T14:38:39;6.50;;;1.70;;
36963;SDS011;22878;48.616;35.326;2023-06-01T14:41:05;4.60;;;1.80;;
36963;SDS011;22878;48.616;35.326;2023-06-01T14:43:31;3.70;;;1.50;;
36963;SDS011;22878;48.616;35.326;2023-06-01T14:45:57;4.20;;;1.90;;
36963;SDS011;22878;48.616;35.326;2023-06-01T14:48:23;4.10;;;1.30;;
36963;SDS011;22878;48.616;35.326;2023-06-01T14:50:48;4.80;;;1.50;;
36963;SDS011;22878;48.616;35.326;2023-06-01T14:53:14;8.30;;;2.40;;
36963;SDS011;22878;48.616;35.326;2023-06-01T14:55:40;7.70;;;3.00;;
36963;SDS011;22878;48.616;35.326;2023-06-01T14:58:09;10.00;;;2.90;;
36963;SDS011;22878;48.616;35.326;2023-06-01T15:00:35;9.90;;;2.20;;
36963;SDS011;22878;48.616;35.326;2023-06-01T15:03:02;4.30;;;1.70;;
36963;SDS011;22878;48.616;35.326;2023-06-01T15:05:28;7.90;;;1.60;;
36963;SDS011;22878;48.616;35.326;2023-06-01T15:07:54;6.70;;;1.90;;
36963;SDS011;22878;48.616;35.326;2023-06-01T15:10:19;3.70;;;1.80;;
36963;SDS011;22878;48.616;35.326;2023-06-01T15:12:45;7.00;;;2.00;;
36963;SDS011;22878;48.616;35.326;2023-06-01T15:15:11;4.00;;;1.70;;